createdAt,value
2023-05-08T00:00:43.378Z,13.34
2023-05-08T00:03:11.305Z,13.37
2023-05-08T00:05:39.126Z,13.43
2023-05-08T00:08:06.898Z,13.47
2023-05-08T00:10:36.189Z,13.44
2023-05-08T00:13:03.970Z,13.42
2023-05-08T00:15:31.758Z,13.41
2023-05-08T00:17:59.651Z,13.43
2023-05-08T00:20:27.415Z,13.40
2023-05-08T00:22:55.124Z,13.38
2023-05-08T00:25:22.868Z,13.39
2023-05-08T00:27:52.354Z,13.41
2023-05-08T00:30:20.370Z,13.38
2023-05-08T00:32:48.166Z,13.39
2023-05-08T00:35:16.018Z,13.40
2023-05-08T00:37:43.832Z,13.39
2023-05-08T00:40:12.916Z,13.43
2023-05-08T00:42:40.824Z,13.41
2023-05-08T00:45:11.147Z,13.38
2023-05-08T00:47:39.013Z,13.37
2023-05-08T00:50:07.586Z,13.36
2023-05-08T00:52:35.356Z,13.31
2023-05-08T00:55:03.906Z,13.30
2023-05-08T00:57:35.691Z,13.24
2023-05-08T01:00:05.537Z,13.21
2023-05-08T01:02:35.258Z,13.18
2023-05-08T01:05:04.794Z,13.16
2023-05-08T01:07:32.860Z,13.11
2023-05-08T01:10:00.616Z,13.11
2023-05-08T01:12:36.301Z,13.11
2023-05-08T01:15:10.869Z,13.12
2023-05-08T01:17:56.902Z,13.05
2023-05-08T01:20:33.436Z,12.97
2023-05-08T01:23:18.103Z,12.95
2023-05-08T01:26:33.578Z,12.97
2023-05-08T01:29:37.979Z,12.98
2023-05-08T01:32:13.842Z,13.00
2023-05-08T01:34:46.293Z,13.02
2023-05-08T01:37:17.111Z,13.08
2023-05-08T01:39:46.988Z,13.09
2023-05-08T01:42:19.785Z,13.12
2023-05-08T01:45:00.543Z,13.14
2023-05-08T01:47:32.286Z,13.18
2023-05-08T01:50:05.630Z,13.19
2023-05-08T01:52:36.018Z,13.21
2023-05-08T01:55:06.468Z,13.22
2023-05-08T01:57:35.898Z,13.23
2023-05-08T02:00:05.900Z,13.24
2023-05-08T02:02:36.199Z,13.28
2023-05-08T02:05:05.945Z,13.24
2023-05-08T02:07:35.288Z,13.27
2023-05-08T02:10:03.915Z,13.20
2023-05-08T02:12:32.525Z,13.15
2023-05-08T02:15:01.739Z,13.10
2023-05-08T02:17:30.884Z,13.05
2023-05-08T02:20:02.000Z,13.05
2023-05-08T02:22:29.967Z,13.09
2023-05-08T02:24:58.873Z,13.08
2023-05-08T02:27:28.031Z,13.08
2023-05-08T02:29:56.198Z,13.09
2023-05-08T02:32:26.686Z,13.06
2023-05-08T02:35:02.541Z,13.05
2023-05-08T02:37:33.348Z,13.03
2023-05-08T02:40:02.997Z,13.01
2023-05-08T02:42:31.673Z,13.00
2023-05-08T02:44:59.451Z,12.98
2023-05-08T02:47:29.199Z,12.97
2023-05-08T02:50:02.274Z,12.93
2023-05-08T02:52:33.678Z,12.91
2023-05-08T02:55:04.642Z,12.87
2023-05-08T02:57:37.332Z,12.79
2023-05-08T03:00:07.302Z,12.81
2023-05-08T03:02:39.500Z,12.79
2023-05-08T03:05:14.942Z,12.76
2023-05-08T03:07:45.118Z,12.75
2023-05-08T03:10:15.629Z,12.74
2023-05-08T03:12:47.301Z,12.74
2023-05-08T03:15:20.549Z,12.71
2023-05-08T03:17:50.068Z,12.66
2023-05-08T03:20:19.306Z,12.62
2023-05-08T03:22:49.364Z,12.59
2023-05-08T03:25:18.506Z,12.55
2023-05-08T03:27:47.089Z,12.56
2023-05-08T03:30:16.017Z,12.53
2023-05-08T03:32:46.085Z,12.47
2023-05-08T03:35:15.207Z,12.46
2023-05-08T03:37:43.386Z,12.43
2023-05-08T03:40:13.378Z,12.40
2023-05-08T03:42:42.232Z,12.40
2023-05-08T03:45:11.450Z,12.38
2023-05-08T03:47:40.547Z,12.37
2023-05-08T03:50:10.297Z,12.33
2023-05-08T03:52:39.467Z,12.32
2023-05-08T03:55:08.496Z,12.31
2023-05-08T03:57:42.070Z,12.33
2023-05-08T04:00:14.831Z,12.32
2023-05-08T04:02:48.444Z,12.30
2023-05-08T04:05:22.868Z,12.30
2023-05-08T04:07:54.694Z,12.26
2023-05-08T04:10:26.284Z,12.23
2023-05-08T04:12:59.942Z,12.26
2023-05-08T04:15:30.832Z,12.24
2023-05-08T04:18:01.253Z,12.20
2023-05-08T04:20:30.719Z,12.18
2023-05-08T04:22:59.891Z,12.18
2023-05-08T04:25:27.772Z,12.16
2023-05-08T04:27:57.727Z,12.18
2023-05-08T04:30:25.883Z,12.16
2023-05-08T04:32:53.853Z,12.14
2023-05-08T04:35:21.954Z,12.12
2023-05-08T04:37:49.826Z,12.13
2023-05-08T04:40:17.693Z,12.08
2023-05-08T04:42:47.497Z,12.08
2023-05-08T04:45:17.804Z,12.06
2023-05-08T04:47:45.659Z,12.06
2023-05-08T04:50:13.535Z,12.04
2023-05-08T04:52:41.514Z,12.01
2023-05-08T04:55:10.589Z,12.00
2023-05-08T04:57:38.528Z,12.03
2023-05-08T05:00:07.650Z,12.01
2023-05-08T05:02:36.858Z,12.01
2023-05-08T05:05:04.891Z,12.03
2023-05-08T05:07:32.691Z,12.03
2023-05-08T05:10:01.245Z,11.91
2023-05-08T05:12:29.034Z,12.00
2023-05-08T05:14:56.860Z,12.05
2023-05-08T05:17:24.785Z,12.05
2023-05-08T05:19:54.176Z,12.05
2023-05-08T05:22:21.973Z,12.05
2023-05-08T05:24:49.776Z,12.05
2023-05-08T05:27:19.904Z,12.01
2023-05-08T05:29:49.031Z,11.93
2023-05-08T05:32:16.823Z,11.98
2023-05-08T05:34:44.610Z,11.96
2023-05-08T05:37:13.752Z,11.96
2023-05-08T05:39:41.580Z,11.96
2023-05-08T05:42:09.363Z,12.00
2023-05-08T05:44:37.938Z,12.05
2023-05-08T05:47:06.359Z,12.07
2023-05-08T05:49:34.483Z,12.08
2023-05-08T05:52:02.473Z,12.07
2023-05-08T05:54:31.623Z,12.06
2023-05-08T05:56:59.433Z,12.08
2023-05-08T05:59:27.254Z,12.06
2023-05-08T06:01:55.051Z,12.02
2023-05-08T06:04:22.969Z,12.07
2023-05-08T06:06:50.787Z,12.09
2023-05-08T06:09:18.574Z,12.10
2023-05-08T06:11:47.715Z,12.11
2023-05-08T06:14:15.542Z,12.13
2023-05-08T06:16:45.073Z,12.08
2023-05-08T06:19:12.885Z,12.06
2023-05-08T06:21:41.021Z,12.06
2023-05-08T06:24:09.254Z,12.06
2023-05-08T06:26:37.095Z,12.08
2023-05-08T06:29:07.557Z,12.13
2023-05-08T06:31:35.432Z,12.12
2023-05-08T06:34:03.288Z,12.18
2023-05-08T06:36:31.867Z,12.16
2023-05-08T06:38:59.641Z,12.18
2023-05-08T06:41:27.414Z,12.16
2023-05-08T06:43:55.194Z,12.07
2023-05-08T06:46:24.432Z,12.15
2023-05-08T06:48:52.240Z,12.21
2023-05-08T06:51:23.221Z,12.23
2023-05-08T06:53:51.180Z,12.23
2023-05-08T06:56:18.973Z,12.17
2023-05-08T06:58:53.772Z,12.18
2023-05-08T07:01:34.125Z,12.24
2023-05-08T07:04:01.946Z,12.22
2023-05-08T07:06:31.085Z,12.28
2023-05-08T07:08:59.008Z,12.34
2023-05-08T07:11:26.875Z,12.44
2023-05-08T07:13:54.902Z,12.53
2023-05-08T07:16:22.727Z,12.66
2023-05-08T07:18:51.885Z,12.78
2023-05-08T07:21:21.289Z,12.89
2023-05-08T07:23:51.726Z,12.75
2023-05-08T07:26:19.756Z,12.91
2023-05-08T07:28:47.533Z,12.93
2023-05-08T07:31:15.428Z,13.06
2023-05-08T07:33:43.492Z,13.10
2023-05-08T07:36:12.687Z,13.10
2023-05-08T07:38:40.487Z,13.19
2023-05-08T07:41:08.674Z,13.24
2023-05-08T07:43:37.055Z,13.25
2023-05-08T07:46:04.925Z,13.23
2023-05-08T07:48:32.722Z,13.33
2023-05-08T07:51:00.514Z,13.33
2023-05-08T07:53:29.671Z,13.34
2023-05-08T07:55:57.461Z,13.38
2023-05-08T07:58:25.274Z,13.43
2023-05-08T08:00:53.762Z,13.42
2023-05-08T08:03:21.625Z,13.36
2023-05-08T08:05:49.492Z,13.43
2023-05-08T08:08:17.311Z,13.51
2023-05-08T08:10:46.465Z,13.49
2023-05-08T08:13:14.246Z,13.52
2023-05-08T08:15:42.081Z,13.59
2023-05-08T08:18:10.024Z,13.62
2023-05-08T08:20:37.874Z,13.54
2023-05-08T08:23:06.071Z,13.44
2023-05-08T08:25:34.089Z,13.55
2023-05-08T08:28:03.229Z,13.58
2023-05-08T08:30:31.017Z,13.66
2023-05-08T08:33:02.211Z,13.70
2023-05-08T08:35:30.394Z,13.53
2023-05-08T08:37:58.278Z,13.37
2023-05-08T08:40:26.343Z,13.43
2023-05-08T08:42:54.128Z,13.48
2023-05-08T08:45:23.371Z,13.51
2023-05-08T08:47:53.749Z,13.28
2023-05-08T08:50:22.158Z,13.17
2023-05-08T08:52:57.284Z,13.24
2023-05-08T08:55:26.777Z,13.16
2023-05-08T08:58:01.192Z,13.30
2023-05-08T09:00:32.198Z,13.25
2023-05-08T09:03:00.155Z,13.25
2023-05-08T09:05:27.990Z,13.32
2023-05-08T09:07:56.611Z,13.35
2023-05-08T09:10:25.740Z,13.31
2023-05-08T09:12:53.897Z,13.24
2023-05-08T09:15:22.141Z,13.33
2023-05-08T09:17:51.358Z,13.41
2023-05-08T09:20:19.518Z,13.19
2023-05-08T09:22:48.386Z,13.06
2023-05-08T09:25:16.402Z,12.94
2023-05-08T09:27:44.268Z,12.86
2023-05-08T09:30:14.427Z,12.85
2023-05-08T09:32:43.325Z,12.85
2023-05-08T09:35:13.710Z,12.97
2023-05-08T09:37:43.089Z,12.98
2023-05-08T09:40:16.300Z,12.98
2023-05-08T09:42:44.112Z,13.02
2023-05-08T09:45:12.904Z,13.14
2023-05-08T09:47:49.402Z,13.23
2023-05-08T09:50:18.928Z,13.33
2023-05-08T09:52:48.625Z,13.45
2023-05-08T09:55:16.484Z,13.47
2023-05-08T09:57:54.188Z,13.57
2023-05-08T10:00:22.864Z,13.62
2023-05-08T10:03:01.322Z,13.61
2023-05-08T10:05:32.253Z,13.60
2023-05-08T10:08:01.253Z,13.71
2023-05-08T10:10:30.985Z,13.78
2023-05-08T10:12:59.500Z,13.86
2023-05-08T10:15:31.193Z,13.98
2023-05-08T10:18:04.390Z,14.08
2023-05-08T10:20:34.857Z,14.20
2023-05-08T10:23:03.422Z,14.37
2023-05-08T10:25:33.998Z,14.39
2023-05-08T10:28:08.465Z,14.54
2023-05-08T10:30:39.870Z,14.36
2023-05-08T10:33:11.218Z,14.29
2023-05-08T10:35:40.412Z,14.39
2023-05-08T10:38:09.920Z,14.32
2023-05-08T10:40:38.873Z,14.33
2023-05-08T10:43:08.108Z,14.54
2023-05-08T10:45:36.156Z,14.67
2023-05-08T10:48:06.512Z,14.70
2023-05-08T10:50:46.331Z,14.49
2023-05-08T10:53:18.277Z,14.58
2023-05-08T10:55:47.486Z,14.57
2023-05-08T10:58:16.426Z,14.50
2023-05-08T11:01:12.899Z,14.34
2023-05-08T11:03:42.845Z,14.30
2023-05-08T11:06:12.227Z,14.21
2023-05-08T11:08:51.059Z,14.16
2023-05-08T11:11:26.841Z,14.14
2023-05-08T11:13:59.225Z,14.32
2023-05-08T11:17:04.598Z,14.27
2023-05-08T11:19:32.560Z,14.27
2023-05-08T11:22:23.447Z,14.22
2023-05-08T11:24:54.705Z,14.24
2023-05-08T11:28:04.302Z,14.19
2023-05-08T11:30:37.326Z,14.27
2023-05-08T11:33:18.075Z,14.27
2023-05-08T11:35:51.515Z,14.27
2023-05-08T11:38:25.419Z,14.24
2023-05-08T11:40:59.011Z,14.39
2023-05-08T11:43:28.443Z,14.46
2023-05-08T11:46:01.447Z,14.41
2023-05-08T11:48:29.196Z,14.38
2023-05-08T11:50:57.162Z,14.46
2023-05-08T11:53:26.460Z,14.57
2023-05-08T11:55:54.804Z,14.66
2023-05-08T11:58:23.078Z,14.60
2023-05-08T12:00:51.247Z,14.57
2023-05-08T12:03:21.082Z,14.63
2023-05-08T12:05:49.923Z,14.72
2023-05-08T12:08:18.710Z,14.77
2023-05-08T12:10:52.649Z,14.77
2023-05-08T12:13:21.790Z,14.57
2023-05-08T12:15:51.386Z,14.61
2023-05-08T12:18:19.170Z,14.66
2023-05-08T12:20:47.319Z,14.64
2023-05-08T12:23:15.136Z,14.49
2023-05-08T12:25:43.048Z,14.63
2023-05-08T12:28:12.344Z,14.60
2023-05-08T12:30:40.188Z,14.58
2023-05-08T12:33:08.522Z,14.58
2023-05-08T12:35:36.341Z,14.61
2023-05-08T12:38:04.645Z,14.63
2023-05-08T12:40:33.656Z,14.84
2023-05-08T12:43:02.817Z,14.91
2023-05-08T12:45:34.911Z,15.01
2023-05-08T12:48:03.925Z,15.08
2023-05-08T12:50:35.710Z,15.03
2023-05-08T12:53:05.385Z,15.12
2023-05-08T12:55:34.349Z,15.20
2023-05-08T12:58:03.845Z,15.24
2023-05-08T13:00:40.109Z,15.26
2023-05-08T13:03:08.720Z,14.98
2023-05-08T13:05:37.288Z,15.23
2023-05-08T13:08:07.412Z,15.31
2023-05-08T13:10:46.345Z,15.24
2023-05-08T13:13:14.580Z,15.31
2023-05-08T13:15:44.226Z,15.45
2023-05-08T13:18:12.480Z,15.45
2023-05-08T13:20:40.589Z,15.45
2023-05-08T13:23:08.996Z,15.40
2023-05-08T13:25:37.507Z,15.54
2023-05-08T13:28:05.878Z,15.61
2023-05-08T13:30:33.785Z,15.70
2023-05-08T13:33:03.203Z,15.87
2023-05-08T13:35:31.449Z,15.84
2023-05-08T13:37:59.653Z,15.77
2023-05-08T13:40:27.873Z,15.68
2023-05-08T13:42:55.742Z,15.78
2023-05-08T13:45:23.748Z,15.67
2023-05-08T13:47:51.802Z,15.56
2023-05-08T13:50:22.327Z,15.45
2023-05-08T13:52:52.299Z,15.52
2023-05-08T13:55:23.230Z,15.46
2023-05-08T13:57:51.555Z,15.74
2023-05-08T14:00:20.280Z,16.01
2023-05-08T14:02:50.702Z,16.03
2023-05-08T14:05:19.510Z,16.06
2023-05-08T14:07:48.686Z,15.93
2023-05-08T14:10:17.432Z,15.95
2023-05-08T14:12:46.717Z,16.06
2023-05-08T14:15:14.860Z,16.17
2023-05-08T14:17:43.419Z,16.23
2023-05-08T14:20:12.331Z,15.99
2023-05-08T14:22:40.264Z,15.86
2023-05-08T14:25:10.771Z,15.83
2023-05-08T14:27:38.804Z,15.70
2023-05-08T14:30:08.202Z,15.71
2023-05-08T14:32:36.079Z,15.87
2023-05-08T14:35:03.973Z,16.04
2023-05-08T14:37:31.803Z,16.08
2023-05-08T14:39:59.612Z,15.89
2023-05-08T14:42:28.771Z,15.61
2023-05-08T14:44:57.017Z,15.52
2023-05-08T14:47:24.829Z,15.55
2023-05-08T14:49:53.734Z,15.73
2023-05-08T14:52:21.578Z,15.71
2023-05-08T14:54:53.453Z,15.82
2023-05-08T14:57:21.676Z,16.03
2023-05-08T15:02:21.523Z,16.20
2023-05-08T15:04:49.369Z,16.25
2023-05-08T15:07:17.185Z,16.24
2023-05-08T15:09:44.986Z,15.96
2023-05-08T15:12:12.851Z,16.07
2023-05-08T15:14:40.725Z,16.06
2023-05-08T15:17:10.000Z,15.80
2023-05-08T15:19:37.929Z,15.61
2023-05-08T15:22:05.852Z,15.50
2023-05-08T15:24:33.634Z,15.50
2023-05-08T15:27:01.553Z,15.58
2023-05-08T15:29:29.374Z,15.80
2023-05-08T15:31:57.349Z,15.95
2023-05-08T15:34:29.213Z,16.08
2023-05-08T15:37:00.718Z,16.08
2023-05-08T15:39:28.494Z,16.18
2023-05-08T15:41:56.340Z,16.28
2023-05-08T15:44:26.508Z,16.20
2023-05-08T15:46:56.694Z,16.26
2023-05-08T15:49:27.150Z,16.48
2023-05-08T15:51:55.141Z,16.52
2023-05-08T15:54:23.321Z,16.77
2023-05-08T15:56:51.207Z,17.07
2023-05-08T15:59:18.999Z,17.23
2023-05-08T16:01:47.097Z,17.24
2023-05-08T16:04:14.964Z,17.25
2023-05-08T16:06:44.177Z,17.08
2023-05-08T16:09:12.092Z,17.23
2023-05-08T16:11:39.994Z,17.40
2023-05-08T16:14:07.767Z,17.52
2023-05-08T16:16:35.638Z,17.73
2023-05-08T16:19:03.504Z,17.65
2023-05-08T16:21:31.453Z,17.43
2023-05-08T16:24:00.683Z,17.45
2023-05-08T16:26:28.482Z,17.41
2023-05-08T16:28:56.418Z,17.38
2023-05-08T16:31:24.200Z,17.35
2023-05-08T16:33:51.981Z,17.25
2023-05-08T16:36:19.785Z,17.11
2023-05-08T16:38:47.632Z,17.05
2023-05-08T16:41:17.482Z,17.11
2023-05-08T16:43:45.333Z,17.09
2023-05-08T16:46:13.197Z,16.87
2023-05-08T16:48:42.319Z,16.95
2023-05-08T16:51:10.098Z,17.11
2023-05-08T16:53:37.885Z,17.20
2023-05-08T16:56:05.829Z,17.17
2023-05-08T16:58:35.045Z,17.15
2023-05-08T17:01:02.885Z,17.24
2023-05-08T17:03:30.827Z,17.16
2023-05-08T17:05:58.638Z,16.87
2023-05-08T17:08:26.646Z,16.68
2023-05-08T17:10:54.813Z,16.61
2023-05-08T17:13:22.750Z,16.64
2023-05-08T17:15:51.938Z,16.67
2023-05-08T17:18:20.385Z,16.59
2023-05-08T17:20:48.179Z,16.59
2023-05-08T17:23:16.006Z,16.53
2023-05-08T17:25:43.835Z,16.45
2023-05-08T17:28:11.650Z,16.35
2023-05-08T17:30:39.785Z,16.28
2023-05-08T17:33:08.995Z,16.24
2023-05-08T17:35:36.826Z,16.27
2023-05-08T17:38:04.596Z,16.12
2023-05-08T17:40:32.532Z,16.13
2023-05-08T17:43:00.365Z,16.08
2023-05-08T17:45:28.232Z,16.02
2023-05-08T17:47:56.207Z,15.84
2023-05-08T17:50:25.741Z,15.72
2023-05-08T17:52:53.504Z,15.69
2023-05-08T17:55:21.327Z,15.71
2023-05-08T17:57:49.108Z,15.73
2023-05-08T18:00:17.734Z,15.76
2023-05-08T18:02:49.127Z,15.80
2023-05-08T18:05:17.133Z,15.77
2023-05-08T18:07:46.312Z,15.78
2023-05-08T18:10:14.331Z,15.73
2023-05-08T18:12:42.344Z,15.71
2023-05-08T18:15:12.726Z,15.66
2023-05-08T18:17:40.987Z,15.63
2023-05-08T18:20:11.328Z,15.57
2023-05-08T18:22:39.284Z,15.53
2023-05-08T18:25:09.933Z,15.53
2023-05-08T18:27:37.753Z,15.49
2023-05-08T18:30:06.655Z,15.48
2023-05-08T18:32:35.338Z,15.42
2023-05-08T18:35:03.167Z,15.31
2023-05-08T18:37:30.977Z,15.32
2023-05-08T18:39:58.763Z,15.32
2023-05-08T18:42:28.301Z,15.22
2023-05-08T18:44:56.408Z,15.18
2023-05-08T18:47:24.247Z,15.20
2023-05-08T18:49:52.439Z,15.11
2023-05-08T18:52:20.323Z,15.00
2023-05-08T18:54:48.155Z,15.00
2023-05-08T18:57:15.985Z,14.96
2023-05-08T18:59:52.712Z,14.93
2023-05-08T19:02:20.774Z,14.95
2023-05-08T19:04:48.565Z,14.92
2023-05-08T19:07:16.817Z,14.81
2023-05-08T19:09:44.584Z,14.79
2023-05-08T19:12:12.489Z,14.76
2023-05-08T19:14:40.541Z,14.71
2023-05-08T19:17:09.674Z,14.69
2023-05-08T19:19:37.528Z,14.67
2023-05-08T19:22:05.375Z,14.59
2023-05-08T19:24:34.250Z,14.49
2023-05-08T19:27:02.080Z,14.49
2023-05-08T19:29:29.996Z,14.51
2023-05-08T19:31:57.940Z,14.52
2023-05-08T19:34:27.526Z,14.36
2023-05-08T19:36:55.375Z,14.33
2023-05-08T19:39:23.168Z,14.30
2023-05-08T19:41:51.371Z,14.33
2023-05-08T19:44:19.241Z,14.34
2023-05-08T19:46:47.106Z,14.31
2023-05-08T19:49:17.335Z,14.28
2023-05-08T19:51:48.420Z,14.27
2023-05-08T19:54:16.489Z,14.14
2023-05-08T19:56:44.365Z,14.16
2023-05-08T19:59:12.194Z,14.06
2023-05-08T20:01:40.173Z,14.10
2023-05-08T20:04:08.130Z,14.07
2023-05-08T20:06:35.993Z,14.07
2023-05-08T20:09:05.331Z,14.05
2023-05-08T20:11:33.120Z,14.02
2023-05-08T20:14:00.948Z,13.97
2023-05-08T20:16:29.096Z,13.86
2023-05-08T20:18:57.281Z,13.91
2023-05-08T20:21:25.648Z,13.90
2023-05-08T20:23:53.516Z,13.89
2023-05-08T20:26:23.327Z,13.90
2023-05-08T20:28:51.973Z,13.83
2023-05-08T20:31:20.189Z,13.83
2023-05-08T20:33:48.184Z,13.86
2023-05-08T20:36:15.973Z,13.79
2023-05-08T20:38:43.786Z,13.71
2023-05-08T20:41:11.622Z,13.72
2023-05-08T20:43:41.028Z,13.74
2023-05-08T20:46:09.988Z,13.61
2023-05-08T20:48:38.545Z,13.72
2023-05-08T20:51:06.641Z,13.68
2023-05-08T20:53:34.559Z,13.68
2023-05-08T20:56:02.871Z,13.67
2023-05-08T20:58:33.986Z,13.60
2023-05-08T21:01:03.491Z,13.57
2023-05-08T21:03:32.452Z,12.66
2023-05-08T21:06:00.811Z,12.54
2023-05-08T21:08:28.932Z,13.29
2023-05-08T21:11:00.647Z,12.33
2023-05-08T21:13:28.900Z,13.06
2023-05-08T21:15:56.976Z,12.71
2023-05-08T21:18:27.510Z,13.34
2023-05-08T21:20:56.038Z,13.48
2023-05-08T21:23:24.733Z,13.47
2023-05-08T21:25:53.690Z,13.49
2023-05-08T21:28:22.410Z,13.50
2023-05-08T21:30:51.087Z,13.50
2023-05-08T21:33:19.350Z,13.43
2023-05-08T21:35:50.174Z,13.53
2023-05-08T21:38:22.134Z,13.58
2023-05-08T21:40:51.182Z,13.19
2023-05-08T21:43:25.353Z,13.63
2023-05-08T21:45:59.583Z,13.38
2023-05-08T21:48:29.335Z,12.74
2023-05-08T21:50:59.157Z,13.63
2023-05-08T21:53:28.265Z,13.63
2023-05-08T21:56:01.055Z,13.22
2023-05-08T21:58:30.140Z,13.13
2023-05-08T22:00:59.527Z,13.32
2023-05-08T22:03:31.556Z,13.73
2023-05-08T22:06:01.135Z,12.93
2023-05-08T22:08:31.514Z,13.68
2023-05-08T22:11:00.527Z,13.64
2023-05-08T22:13:30.626Z,13.54
2023-05-08T22:15:59.036Z,13.26
2023-05-08T22:18:27.303Z,13.30
2023-05-08T22:20:56.257Z,13.61
2023-05-08T22:23:25.919Z,13.41
2023-05-08T22:25:54.544Z,13.68
2023-05-08T22:28:23.986Z,12.75
2023-05-08T22:30:52.265Z,13.66
2023-05-08T22:33:21.117Z,13.09
2023-05-08T22:35:53.947Z,12.83
2023-05-08T22:38:22.443Z,13.62
2023-05-08T22:40:55.882Z,12.67
2023-05-08T22:43:24.366Z,13.66
2023-05-08T22:45:55.444Z,13.63
2023-05-08T22:48:36.279Z,12.68
2023-05-08T22:51:04.838Z,12.72
2023-05-08T22:53:33.335Z,13.03
2023-05-08T22:56:03.094Z,12.78
2023-05-08T22:58:31.658Z,13.71
2023-05-08T23:01:00.841Z,13.59
2023-05-08T23:03:29.170Z,13.74
2023-05-08T23:05:57.658Z,13.35
2023-05-08T23:08:26.820Z,13.74
2023-05-08T23:10:55.013Z,12.91
2023-05-08T23:13:28.401Z,13.71
2023-05-08T23:15:57.490Z,13.06
2023-05-08T23:18:25.762Z,13.28
2023-05-08T23:20:54.143Z,13.23
2023-05-08T23:23:22.396Z,13.42
2023-05-08T23:25:50.590Z,13.58
2023-05-08T23:28:18.736Z,12.97
2023-05-08T23:30:48.224Z,12.98
2023-05-08T23:33:16.339Z,13.51
2023-05-08T23:35:44.966Z,13.37
2023-05-08T23:38:13.155Z,13.36
2023-05-08T23:40:41.670Z,13.60
2023-05-08T23:43:10.129Z,13.13
2023-05-08T23:45:38.525Z,13.59
2023-05-08T23:48:08.665Z,13.62
2023-05-08T23:50:37.117Z,13.64
2023-05-08T23:53:05.449Z,13.37
2023-05-08T23:55:36.115Z,13.66
2023-05-08T23:58:04.396Z,12.86
